Isle of Iona, United Kingdom
Current Conditions -  °F | °C
As of 9:20 AM on Saturday 20 Dec 2014 (Local Time) from EGPU Reporting Station
Rain Showers Rain Showers  
Wind Chill: 38°   Ceiling: Unl
Heat Index: 46°   Visibility: 6mi
Dew Point: 36°   Wind: 28mph
Humidity: 66%   Direction: 310°NW
Pressure: 30.09"   Gusts: NA
Location:  56.33°N, 6.39°W
Report Text: EGPU 200920Z 31024KT 9999 VCSH FEW026 SCT035 08/02 Q1019
Loading
Personal Weather Stations






























Interactive Weather Map New forecast layout! Learn more

10-Day Weather Forecast

Advertisements
Track Severe Weather on mobile